createdAt,value
2023-04-18T00:00:13.094Z,7.00
2023-04-18T00:03:18.475Z,6.00
2023-04-18T00:06:23.107Z,6.20
2023-04-18T00:09:27.031Z,7.57
2023-04-18T00:12:30.045Z,8.02
2023-04-18T00:15:35.048Z,8.90
2023-04-18T00:18:38.514Z,8.73
2023-04-18T00:21:45.309Z,8.02
2023-04-18T00:24:49.040Z,7.40
2023-04-18T00:27:51.898Z,5.10
2023-04-18T00:30:55.970Z,5.37
2023-04-18T00:33:59.402Z,6.07
2023-04-18T00:37:02.686Z,9.55
2023-04-18T00:40:06.490Z,14.13
2023-04-18T00:43:11.114Z,12.15
2023-04-18T00:46:16.609Z,8.13
2023-04-18T00:49:21.061Z,6.27
2023-04-18T00:52:27.636Z,7.07
2023-04-18T00:55:31.236Z,8.45
2023-04-18T00:58:35.360Z,7.97
2023-04-18T01:01:40.631Z,8.37
2023-04-18T01:04:44.840Z,9.07
2023-04-18T01:07:48.583Z,8.50
2023-04-18T01:10:52.984Z,8.85
2023-04-18T01:14:08.752Z,9.50
2023-04-18T01:17:12.125Z,9.40
2023-04-18T01:20:17.272Z,8.50
2023-04-18T01:23:22.119Z,8.55
2023-04-18T01:26:25.830Z,7.88
2023-04-18T01:29:30.054Z,9.07
2023-04-18T01:32:32.993Z,11.70
2023-04-18T01:35:36.922Z,9.30
2023-04-18T01:38:39.902Z,9.88
2023-04-18T01:41:43.493Z,9.13
2023-04-18T01:44:47.798Z,9.40
2023-04-18T01:47:51.263Z,10.63
2023-04-18T01:50:54.294Z,8.70
2023-04-18T01:53:57.588Z,7.72
2023-04-18T01:57:00.845Z,8.00
2023-04-18T02:00:09.136Z,8.45
2023-04-18T02:03:18.557Z,9.03
2023-04-18T02:06:22.505Z,9.80
2023-04-18T02:09:26.148Z,18.38
2023-04-18T02:12:30.126Z,10.95
2023-04-18T02:15:33.847Z,10.50
2023-04-18T02:18:37.969Z,9.03
2023-04-18T02:21:42.544Z,8.20
2023-04-18T02:24:46.062Z,8.70
2023-04-18T02:27:51.295Z,9.20
2023-04-18T02:30:54.318Z,10.25
2023-04-18T02:33:57.845Z,10.73
2023-04-18T02:37:01.842Z,11.20
2023-04-18T02:40:06.214Z,11.32
2023-04-18T02:43:10.386Z,10.18
2023-04-18T02:46:14.228Z,8.93
2023-04-18T02:49:19.070Z,8.23
2023-04-18T02:52:24.202Z,3.77
2023-04-18T02:55:28.399Z,3.83
2023-04-18T02:58:36.974Z,3.30
2023-04-18T03:02:00.203Z,3.40
2023-04-18T03:05:04.616Z,3.07
2023-04-18T03:08:09.654Z,2.60
2023-04-18T03:11:14.333Z,2.63
2023-04-18T03:14:17.173Z,3.35
2023-04-18T03:17:26.050Z,2.53
2023-04-18T03:20:29.934Z,1.87
2023-04-18T03:23:33.642Z,2.70
2023-04-18T03:26:40.034Z,1.88
2023-04-18T03:29:43.916Z,1.58
2023-04-18T03:32:49.892Z,1.65
2023-04-18T03:35:53.038Z,2.43
2023-04-18T03:38:57.295Z,2.50
2023-04-18T03:42:02.650Z,1.45
2023-04-18T03:45:06.643Z,1.83
2023-04-18T03:48:11.624Z,1.60
2023-04-18T03:51:19.313Z,1.80
2023-04-18T03:54:23.006Z,2.23
2023-04-18T03:57:26.970Z,1.98
2023-04-18T04:00:31.021Z,2.00
2023-04-18T04:03:44.399Z,2.03
2023-04-18T04:06:47.806Z,3.90
2023-04-18T04:09:52.675Z,1.93
2023-04-18T04:12:55.959Z,2.45
2023-04-18T04:15:59.970Z,1.88
2023-04-18T04:19:03.401Z,1.90
2023-04-18T04:22:13.348Z,2.70
2023-04-18T04:25:18.827Z,2.17
2023-04-18T04:28:24.122Z,1.92
2023-04-18T04:31:33.464Z,2.10
2023-04-18T04:34:37.313Z,2.25
2023-04-18T04:37:44.585Z,1.80
2023-04-18T04:40:59.102Z,4.60
2023-04-18T04:44:02.797Z,3.35
2023-04-18T04:47:08.624Z,2.97
2023-04-18T04:50:16.195Z,2.58
2023-04-18T04:53:20.372Z,2.63
2023-04-18T04:56:24.827Z,2.23
2023-04-18T04:59:31.038Z,2.35
2023-04-18T05:02:36.218Z,3.80
2023-04-18T05:05:39.899Z,3.03
2023-04-18T05:08:43.549Z,2.53
2023-04-18T05:11:50.175Z,7.13
2023-04-18T05:14:52.963Z,4.82
2023-04-18T05:17:56.498Z,5.68
2023-04-18T05:21:00.186Z,5.15
2023-04-18T05:24:04.222Z,3.83
2023-04-18T05:27:08.240Z,9.57
2023-04-18T05:30:12.677Z,5.95
2023-04-18T05:33:15.939Z,3.95
2023-04-18T05:36:19.666Z,3.85
2023-04-18T05:39:22.643Z,2.87
2023-04-18T05:42:26.381Z,3.87
2023-04-18T05:45:29.330Z,3.25
2023-04-18T05:48:33.588Z,2.75
2023-04-18T05:51:36.920Z,3.75
2023-04-18T05:54:40.883Z,3.87
2023-04-18T05:57:44.561Z,3.40
2023-04-18T06:00:49.233Z,4.15
2023-04-18T06:03:53.110Z,3.58
2023-04-18T06:06:57.289Z,2.83
2023-04-18T06:10:00.990Z,2.70
2023-04-18T06:13:04.918Z,3.30
2023-04-18T06:16:09.156Z,3.65
2023-04-18T06:19:13.150Z,2.35
2023-04-18T06:22:16.458Z,3.05
2023-04-18T06:25:20.589Z,3.83
2023-04-18T06:28:24.431Z,2.80
2023-04-18T06:31:28.775Z,3.65
2023-04-18T06:34:32.599Z,3.80
2023-04-18T06:37:36.289Z,6.95
2023-04-18T06:40:39.944Z,8.60
2023-04-18T06:43:52.395Z,6.87
2023-04-18T06:47:06.531Z,6.63
2023-04-18T06:50:10.506Z,3.67
2023-04-18T06:53:14.342Z,2.72
2023-04-18T06:56:18.509Z,2.70
2023-04-18T06:59:22.325Z,3.63
2023-04-18T07:02:26.457Z,3.80
2023-04-18T07:05:30.486Z,3.38
2023-04-18T07:08:35.531Z,3.40
2023-04-18T07:11:41.063Z,3.27
2023-04-18T07:14:45.379Z,3.00
2023-04-18T07:17:49.207Z,3.17
2023-04-18T07:20:53.283Z,3.10
2023-04-18T07:23:57.018Z,2.65
2023-04-18T07:27:00.902Z,2.30
2023-04-18T07:30:04.850Z,3.17
2023-04-18T07:33:08.487Z,2.42
2023-04-18T07:36:12.030Z,2.75
2023-04-18T07:39:16.105Z,2.60
2023-04-18T07:42:19.717Z,2.60
2023-04-18T07:45:23.789Z,4.20
2023-04-18T07:48:27.612Z,3.40
2023-04-18T07:51:35.942Z,4.10
2023-04-18T07:54:39.614Z,2.38
2023-04-18T07:57:51.177Z,3.40
2023-04-18T08:00:55.125Z,2.60
2023-04-18T08:04:02.247Z,2.03
2023-04-18T08:07:05.299Z,2.22
2023-04-18T08:10:09.024Z,2.30
2023-04-18T08:13:15.531Z,2.20
2023-04-18T08:16:19.226Z,2.67
2023-04-18T08:19:22.241Z,3.97
2023-04-18T08:22:25.205Z,3.60
2023-04-18T08:25:28.126Z,2.90
2023-04-18T08:44:18.632Z,2.97
2023-04-18T08:47:22.220Z,2.80
2023-04-18T08:50:26.445Z,2.75
2023-04-18T08:53:30.065Z,3.20
2023-04-18T08:56:35.903Z,2.90
2023-04-18T08:59:40.758Z,3.53
2023-04-18T09:02:45.353Z,4.15
2023-04-18T09:06:10.886Z,4.25
2023-04-18T09:09:15.227Z,2.92
2023-04-18T09:12:23.173Z,2.92
2023-04-18T09:15:30.120Z,3.67
2023-04-18T09:18:33.887Z,3.20
2023-04-18T09:21:41.716Z,3.65
2023-04-18T09:24:58.002Z,3.67
2023-04-18T09:28:05.989Z,3.08
2023-04-18T09:31:16.093Z,3.27
2023-04-18T09:34:25.811Z,3.30
2023-04-18T09:37:30.300Z,3.67
2023-04-18T09:40:34.485Z,3.58
2023-04-18T09:43:38.427Z,4.25
2023-04-18T09:46:42.239Z,3.50
2023-04-18T09:49:46.307Z,3.75
2023-04-18T09:52:50.142Z,5.13
2023-04-18T09:55:57.499Z,4.18
2023-04-18T09:59:11.155Z,4.47
2023-04-18T10:02:25.873Z,5.13
2023-04-18T10:05:33.135Z,3.50
2023-04-18T10:08:37.077Z,4.90
2023-04-18T10:11:41.850Z,5.82
2023-04-18T10:14:45.444Z,8.55
2023-04-18T10:18:05.064Z,7.83
2023-04-18T10:21:09.917Z,6.72
2023-04-18T10:24:57.023Z,8.20
2023-04-18T10:28:02.708Z,7.13
2023-04-18T10:31:08.721Z,6.32
2023-04-18T10:34:18.159Z,6.00
2023-04-18T10:37:22.078Z,7.13
2023-04-18T10:40:35.274Z,7.70
2023-04-18T10:44:16.277Z,7.05
2023-04-18T10:47:21.961Z,7.35
2023-04-18T10:53:59.626Z,10.27
2023-04-18T10:57:05.069Z,7.63
2023-04-18T11:00:12.288Z,8.63
2023-04-18T11:03:16.057Z,11.30
2023-04-18T11:06:19.248Z,11.13
2023-04-18T11:09:23.211Z,9.95
2023-04-18T11:12:32.523Z,10.90
2023-04-18T11:15:37.894Z,8.10
2023-04-18T11:18:42.570Z,5.80
2023-04-18T11:21:46.381Z,5.50
2023-04-18T11:24:50.054Z,5.70
2023-04-18T11:27:55.607Z,6.85
2023-04-18T11:31:03.828Z,6.43
2023-04-18T11:34:06.783Z,7.15
2023-04-18T11:37:09.833Z,10.33
2023-04-18T11:40:14.577Z,8.35
2023-04-18T11:43:26.089Z,4.25
2023-04-18T11:46:39.414Z,5.60
2023-04-18T11:49:43.113Z,6.65
2023-04-18T11:52:50.992Z,13.37
2023-04-18T11:55:57.686Z,14.15
2023-04-18T11:59:09.673Z,17.23
2023-04-18T12:02:16.803Z,9.00
2023-04-18T12:05:29.936Z,11.68
2023-04-18T12:08:34.260Z,7.40
2023-04-18T12:11:37.125Z,6.75
2023-04-18T12:14:40.398Z,8.43
2023-04-18T12:17:54.976Z,5.57
2023-04-18T12:21:02.484Z,7.50
2023-04-18T12:24:16.889Z,7.17
2023-04-18T12:27:19.901Z,8.60
2023-04-18T12:30:28.669Z,11.55
2023-04-18T12:33:32.332Z,11.73
2023-04-18T12:36:36.066Z,11.38
2023-04-18T12:39:39.737Z,8.43
2023-04-18T12:42:44.013Z,5.32
2023-04-18T12:45:47.965Z,5.85
2023-04-18T12:48:50.933Z,5.20
2023-04-18T12:51:53.919Z,7.20
2023-04-18T12:54:57.422Z,7.70
2023-04-18T12:58:01.235Z,13.50
2023-04-18T13:01:05.979Z,19.58
2023-04-18T13:04:12.914Z,25.40
2023-04-18T13:07:16.831Z,25.80
2023-04-18T13:10:21.919Z,31.37
2023-04-18T13:13:26.052Z,29.42
2023-04-18T13:16:29.403Z,23.73
2023-04-18T13:19:33.705Z,19.95
2023-04-18T13:22:38.347Z,17.05
2023-04-18T13:25:42.955Z,18.30
2023-04-18T13:28:47.093Z,18.10
2023-04-18T13:31:50.340Z,21.08
2023-04-18T13:34:54.068Z,21.92
2023-04-18T13:37:58.111Z,29.35
2023-04-18T13:41:11.314Z,32.90
2023-04-18T13:44:17.089Z,33.00
2023-04-18T13:47:20.386Z,35.17
2023-04-18T13:50:24.192Z,29.88
2023-04-18T13:53:30.259Z,32.50
2023-04-18T13:56:35.095Z,32.15
2023-04-18T13:59:42.958Z,32.90
2023-04-18T14:02:47.102Z,31.73
2023-04-18T14:05:50.947Z,30.15
2023-04-18T14:08:55.379Z,26.83
2023-04-18T14:11:59.053Z,27.25
2023-04-18T14:15:03.011Z,31.13
2023-04-18T14:18:07.055Z,28.25
2023-04-18T14:21:09.980Z,27.80
2023-04-18T14:24:13.071Z,26.73
2023-04-18T14:27:17.056Z,25.25
2023-04-18T14:30:20.300Z,33.28
2023-04-18T14:33:24.990Z,36.33
2023-04-18T14:36:28.549Z,35.10
2023-04-18T14:39:32.596Z,36.40
2023-04-18T14:42:36.400Z,36.53
2023-04-18T14:45:40.317Z,36.53
2023-04-18T14:48:46.959Z,37.42
2023-04-18T14:51:49.819Z,36.73
2023-04-18T14:54:53.445Z,35.75
2023-04-18T14:57:56.872Z,36.53
2023-04-18T15:01:00.968Z,39.72
2023-04-18T15:04:05.023Z,38.43
2023-04-18T15:07:09.489Z,41.65
2023-04-18T15:10:13.565Z,44.03
2023-04-18T15:13:17.278Z,44.22
2023-04-18T15:16:20.980Z,35.20
2023-04-18T15:19:24.426Z,34.10
2023-04-18T15:22:27.907Z,28.95
2023-04-18T15:25:31.632Z,24.48
2023-04-18T15:28:34.883Z,22.35
2023-04-18T15:31:39.154Z,18.90
2023-04-18T15:34:42.603Z,17.47
2023-04-18T15:37:46.330Z,18.30
2023-04-18T15:40:50.521Z,17.60
2023-04-18T15:43:54.130Z,12.68
2023-04-18T15:46:58.654Z,15.07
2023-04-18T15:50:03.892Z,18.53
2023-04-18T15:53:07.820Z,14.95
2023-04-18T15:56:11.495Z,10.45
2023-04-18T15:59:15.677Z,11.93
2023-04-18T16:02:19.381Z,10.00
2023-04-18T16:05:22.776Z,12.60
2023-04-18T16:08:26.416Z,18.40
2023-04-18T16:11:30.477Z,28.65
2023-04-18T16:14:34.270Z,28.27
2023-04-18T16:17:38.957Z,30.03
2023-04-18T16:20:42.213Z,21.48
2023-04-18T16:23:45.404Z,17.02
2023-04-18T16:26:49.192Z,10.30
2023-04-18T16:29:54.700Z,8.80
2023-04-18T16:32:57.992Z,8.27
2023-04-18T16:36:05.147Z,8.32
2023-04-18T16:39:08.233Z,9.18
2023-04-18T16:42:13.337Z,8.13
2023-04-18T16:45:17.858Z,7.05
2023-04-18T16:48:20.994Z,10.00
2023-04-18T16:51:25.052Z,17.67
2023-04-18T16:54:28.055Z,25.58
2023-04-18T16:57:31.156Z,45.53
2023-04-18T17:00:36.427Z,48.88
2023-04-18T17:03:42.972Z,47.87
2023-04-18T17:06:47.250Z,47.95
2023-04-18T17:09:50.985Z,48.38
2023-04-18T17:12:55.085Z,46.65
2023-04-18T17:15:59.281Z,43.33
2023-04-18T17:19:02.970Z,40.40
2023-04-18T17:22:06.344Z,50.05
2023-04-18T17:25:09.768Z,38.03
2023-04-18T17:28:14.814Z,34.35
2023-04-18T17:31:18.449Z,24.80
2023-04-18T17:34:22.324Z,21.93
2023-04-18T17:37:26.490Z,22.02
2023-04-18T17:40:29.642Z,18.52
2023-04-18T17:43:33.352Z,19.67
2023-04-18T17:46:36.540Z,14.55
2023-04-18T17:49:40.578Z,15.73
2023-04-18T17:52:44.521Z,16.90
2023-04-18T17:55:50.947Z,16.10
2023-04-18T17:58:56.526Z,26.17
2023-04-18T18:02:00.743Z,25.53
2023-04-18T18:05:03.594Z,13.23
2023-04-18T18:08:07.375Z,8.68
2023-04-18T18:11:11.657Z,7.90
2023-04-18T18:14:14.917Z,6.75
2023-04-18T18:17:18.958Z,9.97
2023-04-18T18:20:23.058Z,9.38
2023-04-18T18:23:26.018Z,7.50
2023-04-18T18:26:29.039Z,7.65
2023-04-18T18:29:32.781Z,7.32
2023-04-18T18:32:35.756Z,6.67
2023-04-18T18:35:38.746Z,7.43
2023-04-18T18:38:42.374Z,8.38
2023-04-18T18:41:46.422Z,8.50
2023-04-18T18:44:49.987Z,7.72
2023-04-18T18:47:53.927Z,10.97
2023-04-18T18:50:58.835Z,12.65
2023-04-18T18:54:02.762Z,12.60
2023-04-18T18:57:06.128Z,13.32
2023-04-18T19:00:14.270Z,11.38
2023-04-18T19:03:19.823Z,12.77
2023-04-18T19:06:23.832Z,9.82
2023-04-18T19:09:27.925Z,13.32
2023-04-18T19:12:32.484Z,15.68
2023-04-18T19:15:36.142Z,11.18
2023-04-18T19:18:42.376Z,10.03
2023-04-18T19:21:46.714Z,8.43
2023-04-18T19:24:50.793Z,9.48
2023-04-18T19:27:54.413Z,8.48
2023-04-18T19:30:58.308Z,9.13
2023-04-18T19:34:01.795Z,8.18
2023-04-18T19:37:06.128Z,8.82
2023-04-18T19:40:10.746Z,8.35
2023-04-18T19:43:14.532Z,8.40
2023-04-18T19:46:18.311Z,8.63
2023-04-18T19:49:23.377Z,9.70
2023-04-18T19:52:27.299Z,8.95
2023-04-18T19:55:32.637Z,8.65
2023-04-18T19:58:46.689Z,7.72
2023-04-18T20:01:50.386Z,7.27
2023-04-18T20:04:53.543Z,6.70
2023-04-18T20:07:57.606Z,7.07
2023-04-18T20:11:01.155Z,8.85
2023-04-18T20:14:05.361Z,10.88
2023-04-18T20:17:09.171Z,10.40
2023-04-18T20:20:13.973Z,10.75
2023-04-18T20:23:18.003Z,8.27
2023-04-18T20:26:21.698Z,8.18
2023-04-18T20:29:26.337Z,7.55
2023-04-18T20:32:29.680Z,6.70
2023-04-18T20:35:33.301Z,4.68
2023-04-18T20:38:37.887Z,4.60
2023-04-18T20:41:47.107Z,3.93
2023-04-18T20:44:50.882Z,3.60
2023-04-18T20:47:54.549Z,5.32
2023-04-18T20:50:58.606Z,5.65
2023-04-18T20:54:02.684Z,4.40
2023-04-18T20:57:06.326Z,5.43
2023-04-18T21:00:11.077Z,9.23
2023-04-18T21:03:15.726Z,6.95
2023-04-18T21:06:22.761Z,4.70
2023-04-18T21:09:26.894Z,3.75
2023-04-18T21:12:30.822Z,3.57
2023-04-18T21:15:36.656Z,3.47
2023-04-18T21:18:40.218Z,3.03
2023-04-18T21:21:44.196Z,3.22
2023-04-18T21:24:47.859Z,2.60
2023-04-18T21:27:52.014Z,3.00
2023-04-18T21:30:55.939Z,2.83
2023-04-18T21:34:04.743Z,2.83
2023-04-18T21:37:07.787Z,2.75
2023-04-18T21:40:12.157Z,3.40
2023-04-18T21:43:15.103Z,3.95
2023-04-18T21:46:18.718Z,3.30
2023-04-18T21:49:22.492Z,3.53
2023-04-18T21:52:26.190Z,3.10
2023-04-18T21:55:29.787Z,3.22
2023-04-18T21:58:34.186Z,4.00
2023-04-18T22:01:38.813Z,5.18
2023-04-18T22:04:43.663Z,4.70
2023-04-18T22:07:57.393Z,6.00
2023-04-18T22:11:02.554Z,5.32
2023-04-18T22:14:06.435Z,6.70
2023-04-18T22:17:10.054Z,7.55
2023-04-18T22:20:14.013Z,9.13
2023-04-18T22:23:17.753Z,6.97
2023-04-18T22:26:21.584Z,5.75
2023-04-18T22:29:24.986Z,5.63
2023-04-18T22:32:28.537Z,7.82
2023-04-18T22:35:32.642Z,5.87
2023-04-18T22:38:36.293Z,6.85
2023-04-18T22:41:40.204Z,4.95
2023-04-18T22:44:43.776Z,6.30
2023-04-18T22:47:47.674Z,7.05
2023-04-18T22:50:50.965Z,11.00
2023-04-18T22:53:54.918Z,8.82
2023-04-18T22:56:59.178Z,9.00
2023-04-18T23:00:05.123Z,12.95
2023-04-18T23:03:08.869Z,14.20
2023-04-18T23:06:13.540Z,13.17
2023-04-18T23:09:20.092Z,15.15
2023-04-18T23:12:24.000Z,12.88
2023-04-18T23:15:27.821Z,11.18
2023-04-18T23:18:31.832Z,12.73
2023-04-18T23:21:35.462Z,14.23
2023-04-18T23:24:39.858Z,12.00
2023-04-18T23:27:43.417Z,10.52
2023-04-18T23:30:48.889Z,9.98
2023-04-18T23:33:52.485Z,15.23
2023-04-18T23:36:56.519Z,20.97
2023-04-18T23:40:00.777Z,15.35
2023-04-18T23:43:05.052Z,18.58
2023-04-18T23:46:07.942Z,14.52
2023-04-18T23:49:11.964Z,17.67
2023-04-18T23:52:15.592Z,21.57
2023-04-18T23:55:19.611Z,17.02
2023-04-18T23:58:23.376Z,11.77
